GB-0418 weather

Wishangar Farm private Airstrip
Frensham, England, United Kingdom

Public forecast

Using degrees Celsius for public forecast. Weather courtesy of forecast.io.

METAR (pilot weather report)

Closest report is RAF Odiham, 7.1 nm (13.2 km) NW. Retrieved 2018/04/20 09:50 UTC (38 minutes ago):

EGVO 200950Z 31004KT CAVOK 19/12 Q1024 BLU NOSIG

TAF (pilot weather forecast)

Closest forecast is RAF Odiham, 7.1 nm (13.2 km) NW. Retrieved 2018/04/20 09:03 UTC (1 hour ago):

TAF TAF EGVO 200742Z 2009/2021 28005KT CAVOK